Carey, Ohio
Current Conditions -  °F | °C
As of 11:53 PM on Saturday 22 Nov 2014 (Local Time) from KFDY Reporting Station
Overcast Overcast  
Wind Chill: 50°   Ceiling: 3900
Heat Index: 50°   Visibility: 10mi
Dew Point: 39°   Wind: 12mph
Humidity: 66%   Direction: 200°SSW
Pressure: 30"   Gusts: NA
Location:  40.95°N, 83.38°W
Report Text: KFDY 230453Z AUTO 20010KT 10SM OVC039 10/04 A3000 RMK AO2 SLP157 T01000039 401171072
Loading
Personal Weather Stations






























Interactive Weather Map New forecast layout! Learn more

10-Day Weather Forecast

Advertisements
Track Severe Weather on mobile